Terminal Aerodrome Forecast
Issued by NWS

Home | Current Version | Previous Version | Graphics & Text | Print | Product List | Glossary Off
Versions: 1 2 3 4 5 6 7 8 9 10 11 12 13 14 15 16 17 18 19 20 21 22 23 24 25 26 27 28 29 30 31 32 33 34 35 36 37 38 39 40 41 42 43 44 45 46

000
FTUS43 KDDC 261940 AAD
TAFGCK
TAF AMD
KGCK 261940Z 2620/2718 02017G24KT 1/4SM -SN FZFG OVC008
     FM262000 01016KT 1/2SM -SN FZFG OVC005
     FM262200 35011KT P6SM OVC010
     FM270400 35011KT P6SM BKN030=

USA.gov is the U.S. government's official web portal to all federal, state and local government web resources and services.